createdAt,value
2023-05-24T00:00:11.291Z,18.49
2023-05-24T00:02:42.130Z,18.46
2023-05-24T00:05:11.148Z,18.43
2023-05-24T00:07:39.737Z,18.41
2023-05-24T00:10:10.157Z,18.40
2023-05-24T00:12:39.909Z,18.39
2023-05-24T00:15:09.925Z,18.39
2023-05-24T00:17:41.275Z,18.37
2023-05-24T00:20:12.759Z,18.37
2023-05-24T00:22:44.284Z,18.36
2023-05-24T00:25:12.681Z,18.36
2023-05-24T00:27:42.505Z,18.34
2023-05-24T00:30:11.295Z,18.36
2023-05-24T00:32:39.754Z,18.33
2023-05-24T00:35:09.258Z,18.31
2023-05-24T00:37:41.938Z,18.32
2023-05-24T00:40:11.614Z,18.30
2023-05-24T00:42:41.595Z,18.31
2023-05-24T00:45:11.546Z,18.30
2023-05-24T00:47:40.078Z,18.31
2023-05-24T00:50:13.029Z,18.29
2023-05-24T00:52:43.381Z,18.26
2023-05-24T00:55:12.469Z,18.26
2023-05-24T00:57:43.610Z,18.27
2023-05-24T01:00:13.563Z,18.27
2023-05-24T01:02:44.972Z,18.27
2023-05-24T01:05:14.364Z,18.28
2023-05-24T01:07:58.140Z,18.25
2023-05-24T01:10:38.541Z,18.22
2023-05-24T01:13:24.595Z,18.22
2023-05-24T01:16:01.358Z,18.20
2023-05-24T01:18:35.047Z,18.19
2023-05-24T01:21:17.995Z,18.15
2023-05-24T01:23:53.442Z,18.13
2023-05-24T01:26:36.339Z,18.11
2023-05-24T01:29:07.122Z,18.09
2023-05-24T01:31:37.249Z,18.05
2023-05-24T01:34:05.676Z,18.03
2023-05-24T01:36:34.078Z,18.02
2023-05-24T01:39:02.635Z,18.01
2023-05-24T01:41:41.390Z,17.98
2023-05-24T01:44:22.350Z,18.00
2023-05-24T01:47:03.251Z,17.98
2023-05-24T01:49:39.955Z,18.00
2023-05-24T01:52:14.564Z,18.02
2023-05-24T01:54:50.388Z,18.03
2023-05-24T01:57:21.192Z,18.05
2023-05-24T01:59:52.241Z,18.05
2023-05-24T02:02:21.015Z,18.05
2023-05-24T02:04:49.509Z,18.05
2023-05-24T02:07:19.329Z,18.05
2023-05-24T02:09:47.770Z,18.05
2023-05-24T02:12:16.126Z,18.06
2023-05-24T02:14:44.490Z,18.02
2023-05-24T02:17:14.608Z,18.02
2023-05-24T02:19:42.985Z,18.01
2023-05-24T02:22:12.701Z,18.01
2023-05-24T02:24:41.393Z,18.02
2023-05-24T02:27:09.735Z,18.01
2023-05-24T02:29:38.121Z,17.99
2023-05-24T02:32:07.496Z,17.98
2023-05-24T02:34:37.177Z,17.93
2023-05-24T02:37:06.151Z,17.95
2023-05-24T02:39:34.477Z,17.96
2023-05-24T02:42:06.218Z,17.95
2023-05-24T02:44:34.526Z,17.96
2023-05-24T02:47:02.855Z,17.95
2023-05-24T02:49:31.246Z,17.93
2023-05-24T02:52:00.964Z,17.92
2023-05-24T02:54:29.280Z,17.92
2023-05-24T02:56:58.041Z,17.91
2023-05-24T02:59:26.605Z,17.90
2023-05-24T03:01:54.971Z,17.91
2023-05-24T03:04:26.125Z,17.90
2023-05-24T03:06:54.712Z,17.88
2023-05-24T03:09:24.382Z,17.88
2023-05-24T03:11:54.496Z,17.87
2023-05-24T03:14:25.032Z,17.86
2023-05-24T03:16:53.409Z,17.83
2023-05-24T03:19:21.755Z,17.83
2023-05-24T03:21:53.509Z,17.81
2023-05-24T03:24:23.249Z,17.80
2023-05-24T03:26:51.616Z,17.78
2023-05-24T03:29:19.980Z,17.78
2023-05-24T03:31:48.529Z,17.75
2023-05-24T03:34:17.155Z,17.72
2023-05-24T03:36:45.495Z,17.70
2023-05-24T03:39:13.826Z,17.68
2023-05-24T03:41:43.547Z,17.66
2023-05-24T03:44:11.880Z,17.64
2023-05-24T03:46:40.530Z,17.61
2023-05-24T03:49:09.528Z,17.61
2023-05-24T03:51:37.853Z,17.58
2023-05-24T03:54:09.224Z,17.55
2023-05-24T03:56:38.611Z,17.52
2023-05-24T03:59:08.341Z,17.51
2023-05-24T04:01:37.049Z,17.49
2023-05-24T04:04:05.719Z,17.45
2023-05-24T04:06:36.707Z,17.42
2023-05-24T04:09:10.068Z,17.39
2023-05-24T04:11:38.420Z,17.34
2023-05-24T04:14:08.583Z,17.32
2023-05-24T04:16:39.798Z,17.27
2023-05-24T04:19:08.362Z,17.27
2023-05-24T04:21:37.350Z,17.19
2023-05-24T04:24:09.478Z,17.17
2023-05-24T04:26:38.362Z,17.13
2023-05-24T04:29:08.861Z,17.08
2023-05-24T04:31:37.421Z,17.06
2023-05-24T04:34:08.108Z,17.05
2023-05-24T04:36:36.603Z,17.05
2023-05-24T04:39:05.629Z,17.03
2023-05-24T04:41:39.739Z,16.97
2023-05-24T04:44:12.440Z,16.95
2023-05-24T04:46:40.799Z,16.93
2023-05-24T04:49:09.441Z,16.91
2023-05-24T04:51:38.862Z,16.90
2023-05-24T04:54:09.271Z,16.90
2023-05-24T04:56:38.639Z,16.87
2023-05-24T04:59:09.654Z,16.86
2023-05-24T05:01:40.935Z,16.85
2023-05-24T05:04:09.503Z,16.84
2023-05-24T05:06:40.529Z,16.83
2023-05-24T05:09:10.565Z,16.81
2023-05-24T05:11:38.922Z,16.81
2023-05-24T05:14:09.839Z,16.79
2023-05-24T05:16:39.088Z,16.79
2023-05-24T05:19:07.662Z,16.79
2023-05-24T05:21:37.071Z,16.78
2023-05-24T05:24:05.556Z,16.79
2023-05-24T05:26:34.532Z,16.80
2023-05-24T05:29:02.875Z,16.81
2023-05-24T05:31:32.606Z,16.84
2023-05-24T05:34:00.999Z,16.88
2023-05-24T05:36:29.356Z,16.90
2023-05-24T05:38:57.691Z,16.93
2023-05-24T05:41:26.180Z,16.95
2023-05-24T05:43:54.464Z,16.99
2023-05-24T05:46:22.837Z,17.02
2023-05-24T05:48:52.537Z,17.06
2023-05-24T05:51:20.981Z,17.08
2023-05-24T05:53:49.372Z,17.11
2023-05-24T05:56:18.496Z,17.17
2023-05-24T05:58:46.902Z,17.18
2023-05-24T06:01:16.622Z,17.20
2023-05-24T06:03:45.384Z,17.23
2023-05-24T06:06:15.282Z,17.26
2023-05-24T06:08:43.632Z,17.30
2023-05-24T06:11:11.962Z,17.36
2023-05-24T06:13:40.285Z,17.39
2023-05-24T06:16:10.015Z,17.44
2023-05-24T06:18:38.595Z,17.53
2023-05-24T06:21:10.516Z,17.61
2023-05-24T06:23:40.228Z,17.60
2023-05-24T06:26:09.948Z,17.68
2023-05-24T06:28:38.899Z,17.75
2023-05-24T06:31:07.609Z,17.85
2023-05-24T06:33:37.831Z,17.92
2023-05-24T06:36:07.017Z,18.03
2023-05-24T06:38:36.081Z,18.12
2023-05-24T06:41:06.775Z,18.23
2023-05-24T06:43:35.240Z,18.30
2023-05-24T06:46:03.811Z,18.41
2023-05-24T06:48:32.290Z,18.51
2023-05-24T06:51:00.921Z,18.59
2023-05-24T06:53:29.269Z,18.69
2023-05-24T06:55:58.245Z,18.77
2023-05-24T06:58:28.039Z,18.86
2023-05-24T07:00:56.464Z,18.93
2023-05-24T07:03:25.158Z,19.01
2023-05-24T07:05:53.541Z,19.10
2023-05-24T07:08:21.895Z,19.19
2023-05-24T07:10:50.222Z,19.29
2023-05-24T07:13:18.592Z,19.38
2023-05-24T07:15:48.621Z,19.46
2023-05-24T07:18:17.076Z,19.55
2023-05-24T07:20:45.800Z,19.65
2023-05-24T07:23:14.321Z,19.73
2023-05-24T07:25:42.675Z,19.83
2023-05-24T07:28:11.547Z,19.89
2023-05-24T07:30:39.864Z,19.96
2023-05-24T07:33:09.748Z,20.04
2023-05-24T07:35:38.614Z,20.14
2023-05-24T07:38:07.025Z,20.21
2023-05-24T07:40:35.495Z,20.30
2023-05-24T07:43:04.360Z,20.36
2023-05-24T07:45:32.832Z,20.46
2023-05-24T07:48:01.357Z,20.57
2023-05-24T07:50:31.176Z,20.63
2023-05-24T07:52:59.530Z,20.70
2023-05-24T07:55:28.439Z,20.75
2023-05-24T07:57:56.806Z,20.81
2023-05-24T08:00:25.373Z,20.82
2023-05-24T08:02:53.908Z,20.85
2023-05-24T08:05:22.307Z,20.91
2023-05-24T08:07:52.422Z,20.95
2023-05-24T08:10:21.916Z,21.00
2023-05-24T08:12:51.534Z,21.07
2023-05-24T08:15:19.943Z,21.11
2023-05-24T08:17:49.640Z,21.15
2023-05-24T08:20:18.217Z,21.22
2023-05-24T08:22:49.447Z,21.30
2023-05-24T08:25:20.097Z,21.38
2023-05-24T08:27:48.497Z,21.45
2023-05-24T08:30:17.607Z,21.55
2023-05-24T08:32:46.175Z,21.59
2023-05-24T08:37:46.108Z,21.76
2023-05-24T08:40:14.797Z,21.86
2023-05-24T08:42:49.129Z,21.94
2023-05-24T08:45:18.688Z,21.97
2023-05-24T08:47:48.917Z,21.97
2023-05-24T08:50:17.543Z,21.97
2023-05-24T08:52:47.517Z,21.98
2023-05-24T08:55:16.914Z,21.95
2023-05-24T08:57:48.182Z,21.97
2023-05-24T09:00:18.106Z,22.03
2023-05-24T09:02:48.402Z,22.05
2023-05-24T09:05:17.609Z,22.09
2023-05-24T09:07:47.624Z,22.11
2023-05-24T09:10:16.629Z,22.13
2023-05-24T09:12:53.411Z,22.05
2023-05-24T09:15:21.784Z,22.04
2023-05-24T09:17:50.390Z,22.02
2023-05-24T09:20:27.316Z,22.00
2023-05-24T09:22:55.996Z,21.91
2023-05-24T09:25:24.581Z,21.89
2023-05-24T09:27:55.260Z,21.89
2023-05-24T09:30:26.328Z,21.93
2023-05-24T09:32:59.794Z,21.98
2023-05-24T09:35:28.928Z,22.09
2023-05-24T09:37:59.786Z,22.18
2023-05-24T09:40:29.484Z,22.26
2023-05-24T09:43:10.681Z,22.28
2023-05-24T09:45:46.860Z,22.30
2023-05-24T09:48:17.294Z,22.31
2023-05-24T09:50:47.619Z,22.31
2023-05-24T09:53:19.841Z,22.33
2023-05-24T09:55:48.882Z,22.43
2023-05-24T09:58:18.943Z,22.46
2023-05-24T10:00:47.750Z,22.47
2023-05-24T10:03:16.861Z,22.56
2023-05-24T10:05:48.312Z,22.63
2023-05-24T10:08:18.383Z,22.71
2023-05-24T10:10:48.066Z,22.79
2023-05-24T10:13:19.099Z,22.89
2023-05-24T10:15:47.450Z,22.99
2023-05-24T10:18:16.119Z,23.06
2023-05-24T10:20:45.574Z,23.07
2023-05-24T10:23:21.741Z,23.09
2023-05-24T10:25:56.836Z,23.12
2023-05-24T10:28:27.924Z,23.09
2023-05-24T10:31:07.312Z,23.11
2023-05-24T10:33:38.810Z,23.15
2023-05-24T10:36:10.123Z,23.20
2023-05-24T10:38:40.935Z,23.21
2023-05-24T10:41:14.171Z,23.20
2023-05-24T10:44:00.748Z,23.22
2023-05-24T10:46:36.082Z,23.29
2023-05-24T10:49:06.586Z,23.31
2023-05-24T10:51:39.739Z,23.28
2023-05-24T10:54:19.341Z,23.27
2023-05-24T10:56:49.914Z,23.26
2023-05-24T10:59:41.302Z,23.22
2023-05-24T11:02:13.862Z,23.21
2023-05-24T11:04:49.437Z,23.18
2023-05-24T11:07:20.082Z,23.15
2023-05-24T11:09:56.192Z,23.16
2023-05-24T11:12:24.642Z,23.18
2023-05-24T11:14:54.919Z,23.18
2023-05-24T11:17:24.897Z,23.18
2023-05-24T11:19:55.083Z,23.15
2023-05-24T11:22:26.775Z,23.06
2023-05-24T11:24:57.917Z,23.03
2023-05-24T11:27:26.758Z,22.95
2023-05-24T11:29:59.668Z,22.85
2023-05-24T11:32:28.463Z,22.78
2023-05-24T11:34:56.894Z,22.70
2023-05-24T11:37:38.520Z,22.59
2023-05-24T11:40:16.354Z,22.54
2023-05-24T11:42:45.632Z,22.50
2023-05-24T11:45:16.488Z,22.41
2023-05-24T11:47:45.187Z,22.38
2023-05-24T11:50:17.744Z,22.35
2023-05-24T11:52:46.186Z,22.32
2023-05-24T11:55:17.149Z,22.28
2023-05-24T11:57:54.935Z,22.20
2023-05-24T12:00:28.444Z,22.14
2023-05-24T12:03:01.905Z,22.09
2023-05-24T12:05:31.934Z,22.05
2023-05-24T12:08:06.074Z,21.92
2023-05-24T12:10:36.020Z,21.91
2023-05-24T12:13:05.141Z,21.89
2023-05-24T12:15:35.162Z,21.80
2023-05-24T12:18:03.705Z,21.78
2023-05-24T12:20:32.253Z,21.74
2023-05-24T12:23:02.874Z,21.72
2023-05-24T12:25:31.340Z,21.71
2023-05-24T12:27:59.738Z,21.69
2023-05-24T12:30:28.942Z,21.66
2023-05-24T12:32:59.409Z,21.64
2023-05-24T12:35:27.817Z,21.62
2023-05-24T12:38:01.221Z,21.58
2023-05-24T12:40:29.658Z,21.57
2023-05-24T12:42:59.276Z,21.54
2023-05-24T12:45:28.663Z,21.52
2023-05-24T12:48:02.772Z,21.51
2023-05-24T12:50:31.556Z,21.46
2023-05-24T12:53:00.064Z,21.43
2023-05-24T12:55:29.347Z,21.42
2023-05-24T12:58:01.713Z,21.42
2023-05-24T13:00:31.230Z,21.37
2023-05-24T13:03:01.271Z,21.39
2023-05-24T13:05:30.687Z,21.42
2023-05-24T13:07:59.676Z,21.42
2023-05-24T13:10:28.641Z,21.46
2023-05-24T13:12:57.558Z,21.48
2023-05-24T13:15:27.374Z,21.50
2023-05-24T13:17:56.336Z,21.50
2023-05-24T13:20:26.689Z,21.54
2023-05-24T13:22:55.065Z,21.61
2023-05-24T13:25:23.606Z,21.66
2023-05-24T13:27:52.140Z,21.71
2023-05-24T13:30:27.477Z,21.76
2023-05-24T13:32:56.768Z,21.82
2023-05-24T13:35:26.705Z,21.86
2023-05-24T13:37:55.924Z,21.93
2023-05-24T13:40:25.178Z,22.01
2023-05-24T13:42:53.958Z,22.08
2023-05-24T13:45:22.663Z,22.13
2023-05-24T13:47:51.739Z,22.14
2023-05-24T13:50:20.530Z,22.18
2023-05-24T13:52:50.436Z,22.18
2023-05-24T13:55:18.861Z,22.20
2023-05-24T13:57:51.821Z,22.21
2023-05-24T14:00:22.065Z,22.20
2023-05-24T14:02:50.902Z,22.22
2023-05-24T14:07:52.936Z,22.23
2023-05-24T14:10:22.005Z,22.25
2023-05-24T14:13:03.422Z,22.27
2023-05-24T14:15:39.184Z,22.26
2023-05-24T14:18:08.779Z,22.27
2023-05-24T14:20:38.171Z,22.30
2023-05-24T14:23:08.481Z,22.33
2023-05-24T14:25:37.537Z,22.35
2023-05-24T14:28:07.608Z,22.37
2023-05-24T14:30:37.853Z,22.38
2023-05-24T14:33:08.122Z,22.40
2023-05-24T14:35:40.158Z,22.43
2023-05-24T14:38:11.433Z,22.46
2023-05-24T14:40:40.933Z,22.51
2023-05-24T14:43:10.891Z,22.58
2023-05-24T14:45:41.404Z,22.60
2023-05-24T14:48:12.323Z,22.62
2023-05-24T14:50:42.098Z,22.63
2023-05-24T14:53:13.092Z,22.68
2023-05-24T14:55:43.737Z,22.70
2023-05-24T14:58:22.214Z,22.67
2023-05-24T15:00:51.136Z,22.69
2023-05-24T15:03:20.088Z,22.72
2023-05-24T15:05:49.106Z,22.73
2023-05-24T15:08:18.983Z,22.79
2023-05-24T15:10:47.966Z,22.81
2023-05-24T15:13:16.316Z,22.84
2023-05-24T15:15:44.927Z,22.85
2023-05-24T15:18:13.501Z,22.83
2023-05-24T15:20:42.318Z,22.88
2023-05-24T15:23:11.150Z,22.89
2023-05-24T15:25:41.131Z,22.94
2023-05-24T15:28:10.746Z,22.97
2023-05-24T15:30:39.303Z,23.01
2023-05-24T15:33:08.057Z,23.03
2023-05-24T15:35:36.567Z,23.05
2023-05-24T15:38:05.168Z,23.11
2023-05-24T15:40:33.648Z,23.16
2023-05-24T15:43:03.541Z,23.19
2023-05-24T15:45:31.992Z,23.18
2023-05-24T15:48:00.579Z,23.19
2023-05-24T15:50:45.649Z,23.18
2023-05-24T15:53:19.234Z,23.22
2023-05-24T15:55:48.836Z,23.21
2023-05-24T15:58:18.761Z,23.26
2023-05-24T16:00:47.253Z,23.29
2023-05-24T16:03:16.053Z,23.32
2023-05-24T16:05:44.826Z,23.30
2023-05-24T16:08:13.321Z,23.29
2023-05-24T16:10:42.012Z,23.30
2023-05-24T16:13:10.586Z,23.28
2023-05-24T16:15:42.411Z,23.25
2023-05-24T16:18:10.922Z,23.25
2023-05-24T16:20:39.535Z,23.24
2023-05-24T16:23:08.236Z,23.22
2023-05-24T16:25:36.583Z,23.20
2023-05-24T16:28:04.955Z,23.16
2023-05-24T16:30:34.622Z,23.13
2023-05-24T16:33:04.577Z,23.10
2023-05-24T16:35:33.051Z,23.07
2023-05-24T16:38:01.501Z,23.04
2023-05-24T16:40:29.922Z,23.01
2023-05-24T16:42:58.297Z,23.00
2023-05-24T16:45:26.768Z,22.97
2023-05-24T16:47:55.211Z,22.91
2023-05-24T16:50:25.221Z,22.89
2023-05-24T16:52:53.685Z,22.86
2023-05-24T16:55:22.381Z,22.83
2023-05-24T16:57:51.790Z,22.77
2023-05-24T17:00:22.397Z,22.73
2023-05-24T17:02:53.673Z,22.71
2023-05-24T17:05:22.136Z,22.67
2023-05-24T17:07:52.069Z,22.62
2023-05-24T17:10:20.516Z,22.59
2023-05-24T17:12:49.354Z,22.60
2023-05-24T17:15:17.926Z,22.53
2023-05-24T17:17:46.413Z,22.51
2023-05-24T17:20:15.053Z,22.47
2023-05-24T17:22:43.506Z,22.44
2023-05-24T17:25:13.474Z,22.36
2023-05-24T17:27:41.841Z,22.34
2023-05-24T17:30:11.137Z,22.26
2023-05-24T17:32:39.695Z,22.20
2023-05-24T17:35:09.289Z,22.14
2023-05-24T17:37:37.828Z,22.08
2023-05-24T17:40:08.091Z,22.02
2023-05-24T17:42:37.864Z,22.00
2023-05-24T17:45:07.590Z,21.96
2023-05-24T17:47:36.069Z,21.93
2023-05-24T17:50:04.992Z,21.91
2023-05-24T17:52:33.480Z,21.88
2023-05-24T17:55:02.833Z,21.83
2023-05-24T17:57:31.336Z,21.81
2023-05-24T18:00:01.211Z,21.75
2023-05-24T18:02:29.691Z,21.68
2023-05-24T18:04:58.105Z,21.64
2023-05-24T18:07:28.380Z,21.59
2023-05-24T18:09:59.424Z,21.51
2023-05-24T18:12:28.665Z,21.44
2023-05-24T18:14:57.590Z,21.41
2023-05-24T18:17:28.305Z,21.32
2023-05-24T18:19:56.953Z,21.29
2023-05-24T18:22:25.410Z,21.22
2023-05-24T18:24:53.841Z,21.15
2023-05-24T18:27:22.321Z,21.09
2023-05-24T18:29:50.739Z,21.08
2023-05-24T18:32:19.239Z,21.03
2023-05-24T18:34:49.377Z,21.00
2023-05-24T18:37:19.804Z,20.94
2023-05-24T18:39:48.223Z,20.90
2023-05-24T18:42:17.016Z,20.86
2023-05-24T18:44:45.463Z,20.83
2023-05-24T18:47:13.919Z,20.80
2023-05-24T18:49:42.448Z,20.73
2023-05-24T18:52:12.276Z,20.67
2023-05-24T18:54:40.708Z,20.61
2023-05-24T18:57:09.222Z,20.54
2023-05-24T18:59:38.806Z,20.44
2023-05-24T19:02:07.840Z,20.39
2023-05-24T19:04:36.298Z,20.31
2023-05-24T19:07:06.330Z,20.28
2023-05-24T19:09:36.619Z,20.22
2023-05-24T19:12:05.862Z,20.19
2023-05-24T19:14:37.383Z,20.16
2023-05-24T19:17:05.919Z,20.13
2023-05-24T19:19:34.552Z,20.10
2023-05-24T19:22:03.014Z,20.04
2023-05-24T19:24:31.400Z,19.98
2023-05-24T19:27:01.724Z,19.96
2023-05-24T19:29:30.315Z,19.94
2023-05-24T19:31:58.821Z,19.90
2023-05-24T19:34:28.684Z,19.87
2023-05-24T19:36:57.073Z,19.83
2023-05-24T19:39:25.982Z,19.81
2023-05-24T19:41:54.347Z,19.78
2023-05-24T19:44:24.152Z,19.73
2023-05-24T19:46:52.608Z,19.71
2023-05-24T19:49:21.002Z,19.68
2023-05-24T19:51:49.412Z,19.63
2023-05-24T19:54:17.880Z,19.57
2023-05-24T19:56:49.846Z,19.54
2023-05-24T19:59:18.612Z,19.46
2023-05-24T20:01:48.411Z,19.47
2023-05-24T20:04:17.069Z,19.42
2023-05-24T20:06:45.570Z,19.36
2023-05-24T20:09:18.590Z,19.33
2023-05-24T20:11:47.057Z,19.27
2023-05-24T20:14:15.545Z,19.25
2023-05-24T20:16:44.107Z,19.24
2023-05-24T20:19:13.916Z,19.20
2023-05-24T20:21:42.290Z,19.20
2023-05-24T20:24:10.705Z,19.18
2023-05-24T20:26:39.079Z,19.18
2023-05-24T20:29:07.590Z,19.13
2023-05-24T20:31:37.449Z,19.09
2023-05-24T20:34:06.174Z,19.07
2023-05-24T20:36:36.923Z,19.01
2023-05-24T20:39:05.446Z,18.98
2023-05-24T20:41:34.180Z,18.95
2023-05-24T20:44:02.572Z,18.93
2023-05-24T20:46:31.100Z,18.90
2023-05-24T20:48:59.638Z,18.86
2023-05-24T20:51:28.049Z,18.85
2023-05-24T20:53:57.865Z,18.80
2023-05-24T20:56:26.287Z,18.77
2023-05-24T20:58:56.583Z,18.72
2023-05-24T21:01:25.079Z,18.70
2023-05-24T21:03:53.607Z,18.66
2023-05-24T21:06:21.912Z,18.61
2023-05-24T21:08:50.438Z,18.59
2023-05-24T21:11:23.214Z,18.58
2023-05-24T21:13:51.743Z,18.55
2023-05-24T21:16:20.156Z,18.55
2023-05-24T21:18:48.550Z,18.52
2023-05-24T21:21:24.911Z,18.48
2023-05-24T21:23:53.198Z,18.47
2023-05-24T21:26:23.712Z,18.45
2023-05-24T21:28:52.058Z,18.42
2023-05-24T21:31:21.758Z,18.42
2023-05-24T21:33:50.119Z,18.42
2023-05-24T21:36:18.598Z,18.39
2023-05-24T21:38:48.180Z,18.38
2023-05-24T21:41:16.571Z,18.36
2023-05-24T21:43:46.280Z,18.34
2023-05-24T21:46:17.825Z,18.31
2023-05-24T21:48:46.208Z,18.28
2023-05-24T21:51:15.631Z,18.28
2023-05-24T21:53:44.018Z,18.27
2023-05-24T21:56:12.448Z,18.26
2023-05-24T21:58:40.832Z,18.24
2023-05-24T22:01:10.652Z,18.24
2023-05-24T22:03:39.130Z,18.23
2023-05-24T22:06:09.972Z,18.24
2023-05-24T22:08:38.692Z,18.23
2023-05-24T22:11:07.218Z,18.22
2023-05-24T22:13:35.567Z,18.20
2023-05-24T22:16:03.935Z,18.20
2023-05-24T22:18:39.484Z,18.19
2023-05-24T22:21:07.992Z,18.18
2023-05-24T22:23:36.654Z,18.16
2023-05-24T22:26:08.222Z,18.15
2023-05-24T22:28:53.043Z,18.10
2023-05-24T22:31:21.897Z,18.09
2023-05-24T22:33:51.762Z,18.07
2023-05-24T22:36:20.946Z,18.06
2023-05-24T22:38:49.351Z,18.04
2023-05-24T22:41:17.715Z,18.03
2023-05-24T22:43:46.242Z,18.02
2023-05-24T22:46:17.382Z,18.00
2023-05-24T22:48:46.512Z,18.02
2023-05-24T22:51:16.240Z,18.02
2023-05-24T22:53:44.587Z,18.01
2023-05-24T22:56:12.954Z,17.98
2023-05-24T22:58:41.381Z,17.99
2023-05-24T23:01:09.853Z,17.97
2023-05-24T23:03:38.233Z,17.97
2023-05-24T23:06:07.754Z,17.97
2023-05-24T23:08:37.520Z,17.99
2023-05-24T23:11:10.575Z,17.98
2023-05-24T23:13:42.319Z,17.99
2023-05-24T23:16:14.336Z,18.00
2023-05-24T23:18:45.602Z,18.01
2023-05-24T23:21:16.824Z,18.02
2023-05-24T23:23:46.643Z,18.01
2023-05-24T23:26:28.354Z,18.01
2023-05-24T23:28:56.745Z,18.01
2023-05-24T23:31:25.220Z,18.00
2023-05-24T23:33:53.621Z,18.00
2023-05-24T23:36:21.988Z,18.01
2023-05-24T23:38:52.114Z,17.98
2023-05-24T23:41:20.461Z,18.01
2023-05-24T23:43:49.181Z,18.01
2023-05-24T23:46:17.945Z,18.02
2023-05-24T23:48:46.274Z,18.03
2023-05-24T23:51:14.683Z,18.02
2023-05-24T23:53:43.054Z,18.02
2023-05-24T23:56:15.709Z,17.99
2023-05-24T23:58:44.625Z,17.99
